Time;durP1;ratioP1;P1;durP2;ratioP2;P2;SDS_P1;SDS_P2;PMS_P1;PMS_P2;Temp;Humidity;BMP_temperature;BMP_pressure;BME280_temperature;BME280_humidity;BME280_pressure;Samples;Min_cycle;Max_cycle;Signal;HPM_P1;HPM_P2
2023/08/22 00:00:50;;;;;;;10.30;5.77;;;15.80;99.90;;;;;;5114530;28;20206;-52
2023/08/22 00:03:16;;;;;;;7.60;5.20;;;15.80;99.90;;;;;;5114319;28;20528;-51
2023/08/22 00:05:42;;;;;;;10.83;5.73;;;15.80;99.90;;;;;;5114662;28;20187;-53
2023/08/22 00:08:07;;;;;;;9.00;5.80;;;15.80;99.90;;;;;;5114475;28;20211;-52
2023/08/22 00:10:33;;;;;;;8.63;4.87;;;15.90;99.90;;;;;;5114008;28;20184;-51
2023/08/22 00:12:59;;;;;;;6.87;4.60;;;15.90;99.90;;;;;;5114812;28;20184;-53
2023/08/22 00:15:25;;;;;;;8.13;5.20;;;15.90;99.90;;;;;;5113930;28;21001;-52
2023/08/22 00:17:51;;;;;;;6.53;5.10;;;16.00;99.90;;;;;;5114568;28;20446;-52
2023/08/22 00:20:18;;;;;;;9.60;4.73;;;16.00;81.40;;;;;;5114438;28;20232;-53
2023/08/22 00:22:43;;;;;;;5.40;4.67;;;16.00;14.50;;;;;;5114080;28;20238;-51
2023/08/22 00:25:11;;;;;;;5.43;4.10;;;16.10;1.00;;;;;;5114020;28;20958;-52
2023/08/22 00:27:37;;;;;;;6.10;4.40;;;16.10;1.00;;;;;;5114227;28;20534;-51
2023/08/22 00:30:03;;;;;;;6.67;4.13;;;16.10;1.00;;;;;;5114399;28;20417;-51
2023/08/22 00:32:30;;;;;;;6.87;4.10;;;16.20;1.00;;;;;;5113958;28;20412;-51
2023/08/22 00:34:55;;;;;;;9.27;3.93;;;16.20;1.00;;;;;;5113739;28;20461;-51
2023/08/22 00:37:21;;;;;;;6.87;4.77;;;16.20;1.00;;;;;;5114077;28;20425;-51
2023/08/22 00:39:47;;;;;;;7.23;4.40;;;16.30;1.00;;;;;;5113733;28;20231;-51
2023/08/22 00:42:13;;;;;;;6.53;4.17;;;16.30;99.90;;;;;;5113923;28;20201;-51
2023/08/22 00:44:38;;;;;;;5.90;4.23;;;16.30;99.90;;;;;;5114217;28;20199;-53
2023/08/22 00:47:05;;;;;;;5.53;3.90;;;16.30;99.90;;;;;;5114067;28;20184;-51
2023/08/22 00:49:31;;;;;;;6.87;4.30;;;16.40;99.90;;;;;;5113599;28;20209;-51
2023/08/22 00:51:59;;;;;;;7.63;4.13;;;16.30;99.90;;;;;;5113960;28;20451;-52
2023/08/22 00:54:29;;;;;;;4.97;3.87;;;16.30;99.90;;;;;;5113388;28;20795;-51
2023/08/22 00:56:56;;;;;;;7.90;3.67;;;16.40;99.90;;;;;;5113885;28;20517;-51
2023/08/22 00:59:22;;;;;;;4.00;3.60;;;16.30;99.90;;;;;;5114054;28;20494;-51
2023/08/22 01:01:48;;;;;;;4.53;3.83;;;16.30;99.90;;;;;;5113602;28;20410;-51
2023/08/22 01:04:13;;;;;;;5.57;3.30;;;16.40;99.90;;;;;;5096799;28;20443;-53
2023/08/22 01:07:10;;;;;;;4.53;3.20;;;16.30;99.90;;;;;;5118005;28;20184;-51
2023/08/22 01:09:49;;;;;;;4.93;3.10;;;16.40;99.90;;;;;;5117260;28;20523;-51
2023/08/22 01:12:21;;;;;;;5.20;3.40;;;16.40;99.90;;;;;;5117323;28;20389;-51
2023/08/22 01:15:05;;;;;;;3.70;3.40;;;16.30;99.90;;;;;;5117472;28;20533;-51
2023/08/22 01:17:32;;;;;;;6.40;3.27;;;16.30;99.90;;;;;;5117278;28;20987;-51
2023/08/22 01:19:58;;;;;;;7.00;3.23;;;16.30;99.90;;;;;;5117480;28;20414;-52
2023/08/22 01:22:27;;;;;;;4.63;3.57;;;16.30;95.70;;;;;;5116905;28;20849;-52
2023/08/22 01:24:52;;;;;;;4.53;3.20;;;16.30;94.80;;;;;;5117741;28;20809;-52
2023/08/22 01:27:24;;;;;;;7.10;3.30;;;16.30;94.20;;;;;;5117429;28;20414;-51
2023/08/22 01:30:08;;;;;;;6.73;3.73;;;16.30;94.60;;;;;;5117252;28;20184;-51
2023/08/22 01:32:38;;;;;;;7.07;3.67;;;16.20;89.10;;;;;;5117472;28;20411;-52
2023/08/22 01:35:06;;;;;;;5.20;3.43;;;16.20;90.70;;;;;;5117499;28;20443;-53
2023/08/22 01:37:32;;;;;;;6.40;3.50;;;16.20;93.80;;;;;;5117368;28;20536;-52
2023/08/22 01:39:59;;;;;;;6.60;3.30;;;16.10;99.10;;;;;;5117164;28;20926;-51
2023/08/22 01:42:25;;;;;;;8.10;3.77;;;16.10;99.90;;;;;;5117275;28;20741;-51
2023/08/22 01:44:51;;;;;;;5.17;3.50;;;16.10;99.90;;;;;;5117386;28;20403;-51
2023/08/22 01:47:17;;;;;;;5.53;3.17;;;16.10;99.90;;;;;;5117080;28;20415;-51
2023/08/22 01:49:42;;;;;;;4.20;3.07;;;16.10;99.90;;;;;;5116857;28;20448;-51
2023/08/22 01:52:08;;;;;;;7.00;3.33;;;16.00;99.90;;;;;;5116617;28;20192;-52
2023/08/22 01:54:38;;;;;;;4.50;2.93;;;16.00;99.90;;;;;;5116859;28;20240;-51
2023/08/22 01:57:04;;;;;;;6.60;3.00;;;16.00;99.90;;;;;;5116825;28;20184;-52
2023/08/22 01:59:29;;;;;;;6.03;3.43;;;16.00;99.90;;;;;;5116677;28;20886;-51
2023/08/22 02:01:55;;;;;;;8.00;3.33;;;16.10;99.90;;;;;;5117092;28;20191;-51
2023/08/22 02:04:21;;;;;;;7.77;3.27;;;16.10;99.90;;;;;;5116737;28;20624;-52
2023/08/22 02:06:46;;;;;;;3.47;2.77;;;16.10;97.90;;;;;;5116522;28;20176;-51
2023/08/22 02:09:13;;;;;;;5.13;2.93;;;16.20;95.00;;;;;;5116461;28;20514;-52
2023/08/22 02:11:39;;;;;;;4.33;2.93;;;16.20;90.50;;;;;;5116540;28;20232;-51
2023/08/22 02:14:05;;;;;;;6.60;3.20;;;16.30;80.80;;;;;;5116296;28;20442;-51
2023/08/22 02:16:30;;;;;;;10.10;2.80;;;16.30;72.50;;;;;;5116002;28;20418;-51
2023/08/22 02:18:56;;;;;;;4.73;2.77;;;16.30;60.10;;;;;;5115854;28;20179;-52
2023/08/22 02:21:21;;;;;;;5.87;2.73;;;16.40;53.60;;;;;;5116089;28;20231;-51
2023/08/22 02:23:47;;;;;;;3.37;3.00;;;16.40;38.90;;;;;;5116594;28;20497;-51
2023/08/22 02:26:12;;;;;;;4.73;2.63;;;16.40;27.50;;;;;;5115889;28;20218;-52
2023/08/22 02:28:38;;;;;;;6.20;3.20;;;16.50;22.70;;;;;;5115770;28;20188;-51
2023/08/22 02:31:03;;;;;;;3.50;2.60;;;16.50;20.40;;;;;;5116173;28;20269;-51
2023/08/22 02:33:29;;;;;;;3.20;2.77;;;16.50;19.00;;;;;;5116105;28;20546;-51
2023/08/22 02:35:55;;;;;;;7.57;2.90;;;16.60;9.00;;;;;;5115894;28;20298;-52
2023/08/22 02:38:20;;;;;;;9.63;2.90;;;16.60;1.00;;;;;;5116022;28;20637;-52
2023/08/22 02:40:46;;;;;;;2.70;2.50;;;16.60;1.00;;;;;;5115991;28;20214;-51
2023/08/22 02:43:11;;;;;;;5.13;2.47;;;16.60;1.00;;;;;;5115981;28;20180;-51
2023/08/22 02:45:37;;;;;;;3.00;2.30;;;16.70;1.00;;;;;;5115810;28;20176;-51
2023/08/22 02:48:03;;;;;;;3.37;2.60;;;16.70;1.00;;;;;;5115984;28;20176;-51
2023/08/22 02:50:29;;;;;;;4.33;2.57;;;16.80;1.00;;;;;;5115811;28;20172;-52
2023/08/22 02:52:54;;;;;;;3.93;2.70;;;16.80;1.00;;;;;;5115412;28;20964;-51
2023/08/22 02:55:20;;;;;;;3.20;2.60;;;16.90;1.00;;;;;;5115696;28;20214;-52
2023/08/22 02:57:46;;;;;;;3.97;2.73;;;16.90;1.00;;;;;;5115496;28;20184;-52
2023/08/22 03:00:13;;;;;;;6.37;2.90;;;16.90;1.00;;;;;;5115406;28;20310;-51
2023/08/22 03:02:39;;;;;;;6.20;2.90;;;16.80;1.00;;;;;;5115698;28;20191;-52
2023/08/22 03:05:08;;;;;;;2.73;2.50;;;16.80;1.00;;;;;;5115266;28;20436;-51
2023/08/22 03:07:34;;;;;;;4.50;2.70;;;16.80;1.00;;;;;;5115628;28;20422;-51
2023/08/22 03:09:59;;;;;;;6.07;2.63;;;16.80;1.00;;;;;;5115268;28;20442;-50
2023/08/22 03:12:25;;;;;;;4.00;3.00;;;16.90;1.00;;;;;;5114951;28;20223;-51
2023/08/22 03:14:50;;;;;;;4.60;2.83;;;16.80;1.00;;;;;;5115126;28;20204;-52
2023/08/22 03:17:16;;;;;;;5.13;2.77;;;16.80;1.00;;;;;;5115108;28;20195;-52
2023/08/22 03:19:42;;;;;;;3.97;2.80;;;16.90;1.00;;;;;;5115150;28;20639;-51
2023/08/22 03:22:08;;;;;;;3.97;2.80;;;16.90;1.00;;;;;;5114574;28;20235;-51
2023/08/22 03:24:33;;;;;;;3.47;2.83;;;16.90;1.00;;;;;;5114744;28;20182;-51
2023/08/22 03:26:59;;;;;;;5.60;2.90;;;16.90;1.00;;;;;;5114607;28;20180;-51
2023/08/22 03:29:25;;;;;;;5.63;3.50;;;16.90;1.00;;;;;;5114939;28;20180;-51
2023/08/22 03:31:50;;;;;;;3.23;2.33;;;16.80;1.00;;;;;;5114848;28;20185;-51
2023/08/22 03:34:16;;;;;;;3.17;2.60;;;16.80;1.00;;;;;;5114709;28;20203;-51
2023/08/22 03:36:41;;;;;;;6.40;3.00;;;16.90;1.00;;;;;;5114422;28;20234;-51
2023/08/22 03:39:07;;;;;;;4.73;2.87;;;16.90;1.00;;;;;;5114803;28;20188;-51
2023/08/22 03:41:33;;;;;;;5.00;3.00;;;16.90;1.00;;;;;;5114721;28;20250;-51
2023/08/22 03:43:58;;;;;;;5.17;2.90;;;16.90;1.00;;;;;;5114646;28;20203;-52
2023/08/22 03:46:24;;;;;;;3.30;3.00;;;17.00;1.00;;;;;;5114615;28;20211;-51
2023/08/22 03:48:49;;;;;;;6.97;3.13;;;17.00;1.00;;;;;;5114652;28;20650;-51
2023/08/22 03:51:15;;;;;;;4.10;2.90;;;16.90;1.00;;;;;;5114344;28;20545;-51
2023/08/22 03:53:40;;;;;;;3.83;3.10;;;17.00;1.00;;;;;;5114525;28;20193;-52
2023/08/22 03:56:06;;;;;;;4.83;3.30;;;17.10;1.00;;;;;;5114398;28;20220;-52
2023/08/22 03:58:32;;;;;;;6.10;3.10;;;17.00;1.00;;;;;;5114538;28;20176;-51
2023/08/22 04:01:04;;;;;;;4.63;3.07;;;17.00;1.00;;;;;;5114829;28;20180;-51
2023/08/22 04:03:31;;;;;;;4.70;2.73;;;17.00;1.00;;;;;;5114694;28;20188;-50
2023/08/22 04:06:00;;;;;;;7.37;2.97;;;17.10;1.00;;;;;;5114539;28;20433;-51
2023/08/22 04:08:25;;;;;;;7.60;3.03;;;17.10;1.00;;;;;;5114322;28;20418;-51
2023/08/22 04:10:54;;;;;;;10.77;2.93;;;17.10;1.00;;;;;;5114352;28;20415;-52
2023/08/22 04:13:19;;;;;;;4.90;3.13;;;17.00;1.00;;;;;;5114413;28;20487;-51
2023/08/22 04:15:45;;;;;;;8.93;2.70;;;17.00;1.00;;;;;;5114503;28;20467;-51
2023/08/22 04:18:10;;;;;;;4.00;3.30;;;17.00;1.00;;;;;;5114236;28;20264;-50
2023/08/22 04:20:36;;;;;;;6.13;3.07;;;17.00;1.00;;;;;;5114310;28;20187;-51
2023/08/22 04:23:02;;;;;;;4.20;2.70;;;17.00;1.00;;;;;;5114260;28;20231;-52
2023/08/22 04:25:28;;;;;;;4.20;2.57;;;17.00;1.00;;;;;;5114118;28;20474;-52
2023/08/22 04:27:53;;;;;;;6.37;3.30;;;17.00;1.00;;;;;;5114534;28;20188;-52
2023/08/22 04:30:19;;;;;;;6.90;3.70;;;17.00;1.00;;;;;;5113825;28;20664;-52
2023/08/22 04:32:45;;;;;;;8.97;2.77;;;17.00;1.00;;;;;;5113853;28;20272;-51
2023/08/22 04:35:10;;;;;;;6.03;3.13;;;17.00;1.00;;;;;;5114290;28;20297;-51
2023/08/22 04:37:36;;;;;;;3.83;2.90;;;17.10;1.00;;;;;;5113999;28;20177;-51
2023/08/22 04:40:03;;;;;;;6.43;3.27;;;17.10;1.00;;;;;;5116798;28;20233;-51
2023/08/22 04:42:29;;;;;;;13.87;3.40;;;17.00;1.00;;;;;;5118143;28;20192;-51
2023/08/22 04:44:54;;;;;;;5.90;3.30;;;17.00;1.00;;;;;;5118450;28;20499;-50
2023/08/22 04:47:20;;;;;;;6.23;3.00;;;17.00;1.00;;;;;;5118184;28;20502;-52
2023/08/22 04:49:46;;;;;;;5.10;3.13;;;17.00;1.00;;;;;;5117986;28;20550;-52
2023/08/22 04:52:11;;;;;;;4.37;3.20;;;17.00;1.00;;;;;;5117987;28;20607;-52
2023/08/22 04:54:37;;;;;;;7.87;3.00;;;17.00;1.00;;;;;;5117610;28;20211;-50
2023/08/22 04:57:02;;;;;;;6.07;2.90;;;17.00;1.00;;;;;;5117996;28;20276;-51
2023/08/22 04:59:28;;;;;;;8.97;3.47;;;17.00;1.00;;;;;;5117737;28;20238;-51
2023/08/22 05:01:54;;;;;;;6.80;3.23;;;17.00;1.00;;;;;;5118112;28;20265;-51
2023/08/22 05:04:19;;;;;;;3.87;2.77;;;17.10;1.00;;;;;;5117779;28;20630;-51
2023/08/22 05:06:45;;;;;;;6.27;3.47;;;17.10;1.00;;;;;;5117377;28;20218;-51
2023/08/22 05:09:16;;;;;;;10.50;2.90;;;17.10;1.00;;;;;;5117597;28;20268;-52
2023/08/22 05:11:42;;;;;;;7.53;3.03;;;17.10;1.00;;;;;;5117671;28;20414;-51
2023/08/22 05:14:08;;;;;;;4.10;2.60;;;17.10;1.00;;;;;;5117267;28;20419;-52
2023/08/22 05:16:35;;;;;;;4.23;2.87;;;17.20;1.00;;;;;;5117558;28;20800;-51
2023/08/22 05:19:00;;;;;;;3.23;2.70;;;17.20;1.00;;;;;;5117227;28;20418;-51
2023/08/22 05:21:26;;;;;;;26.27;3.40;;;17.20;1.00;;;;;;5117252;28;20480;-51
2023/08/22 05:23:51;;;;;;;7.03;3.30;;;17.20;1.00;;;;;;5117836;28;20180;-51
2023/08/22 05:26:17;;;;;;;5.13;3.20;;;17.20;1.00;;;;;;5117485;28;20188;-51
2023/08/22 05:28:43;;;;;;;6.80;3.40;;;17.20;1.00;;;;;;5117341;28;20188;-51
2023/08/22 05:31:17;;;;;;;4.33;3.13;;;17.20;1.00;;;;;;5117509;28;20186;-51
2023/08/22 05:33:44;;;;;;;4.77;2.80;;;17.30;1.00;;;;;;5098907;28;20473;-50
2023/08/22 05:36:10;;;;;;;6.77;2.70;;;17.30;1.00;;;;;;5117218;28;20493;-50
2023/08/22 05:38:35;;;;;;;9.03;3.00;;;17.30;1.00;;;;;;5117152;28;20182;-52
2023/08/22 05:41:01;;;;;;;6.03;3.50;;;17.40;1.00;;;;;;5117244;28;20180;-51
2023/08/22 05:43:26;;;;;;;4.90;3.20;;;17.40;1.00;;;;;;5117189;28;20618;-50
2023/08/22 05:45:52;;;;;;;7.90;3.20;;;17.50;1.00;;;;;;5117332;28;20576;-51
2023/08/22 05:48:17;;;;;;;4.57;3.00;;;17.50;1.00;;;;;;5116302;28;20183;-50
2023/08/22 05:50:43;;;;;;;3.77;3.07;;;17.60;1.00;;;;;;5116212;28;20272;-51
2023/08/22 05:53:08;;;;;;;7.57;3.63;;;17.70;1.00;;;;;;5098333;28;20191;-51
2023/08/22 05:55:34;;;;;;;9.57;3.33;;;17.80;1.00;;;;;;5116795;28;20221;-51
2023/08/22 05:57:59;;;;;;;6.20;3.33;;;17.80;1.00;;;;;;5116733;28;20650;-51
2023/08/22 06:00:25;;;;;;;3.70;3.00;;;17.90;1.00;;;;;;5116910;28;20184;-50
2023/08/22 06:02:51;;;;;;;3.30;3.00;;;17.90;1.00;;;;;;5116832;28;20213;-51
2023/08/22 06:05:16;;;;;;;3.70;3.20;;;17.90;1.00;;;;;;5116783;28;20180;-51
2023/08/22 06:07:42;;;;;;;6.77;3.50;;;18.00;1.00;;;;;;5116810;28;20185;-51
2023/08/22 06:10:07;;;;;;;8.87;3.70;;;17.90;1.00;;;;;;5116383;28;20218;-51
2023/08/22 06:12:33;;;;;;;7.50;3.90;;;17.80;1.00;;;;;;5116465;28;20187;-51
2023/08/22 06:14:59;;;;;;;5.07;3.20;;;17.80;1.00;;;;;;5116143;28;20222;-51
2023/08/22 06:17:24;;;;;;;6.27;3.50;;;17.70;4.10;;;;;;5116275;28;20204;-51
2023/08/22 06:19:50;;;;;;;5.40;3.20;;;17.70;3.30;;;;;;5116105;28;20192;-51
2023/08/22 06:22:15;;;;;;;7.03;3.60;;;17.80;11.00;;;;;;5115991;28;20316;-51
2023/08/22 06:24:41;;;;;;;4.50;3.07;;;17.80;8.40;;;;;;5116303;28;20521;-50
2023/08/22 06:27:06;;;;;;;8.77;3.90;;;18.10;16.40;;;;;;5115873;28;20188;-51
2023/08/22 06:29:32;;;;;;;8.40;3.90;;;18.40;1.00;;;;;;5116184;28;20176;-51
2023/08/22 06:32:00;;;;;;;13.13;4.27;;;18.90;1.00;;;;;;5116121;28;20175;-50
2023/08/22 06:34:26;;;;;;;4.97;3.63;;;19.40;1.00;;;;;;5115679;28;20471;-50
2023/08/22 06:36:52;;;;;;;10.17;3.17;;;19.90;1.00;;;;;;5116033;28;20409;-51
2023/08/22 06:39:18;;;;;;;4.33;3.83;;;20.30;1.00;;;;;;5115876;28;20438;-51
2023/08/22 06:41:43;;;;;;;5.67;3.40;;;20.60;1.00;;;;;;5116225;28;20195;-51
2023/08/22 06:44:09;;;;;;;6.70;4.03;;;20.90;1.00;;;;;;5115334;28;20406;-51
2023/08/22 06:46:36;;;;;;;6.43;3.90;;;21.10;1.00;;;;;;5115365;28;20283;-51
2023/08/22 06:49:02;;;;;;;6.57;4.00;;;21.10;1.00;;;;;;5115812;28;20267;-51
2023/08/22 06:51:28;;;;;;;4.73;3.17;;;21.40;1.00;;;;;;5115562;28;20409;-50
2023/08/22 06:53:54;;;;;;;6.57;3.33;;;21.60;1.00;;;;;;5115532;28;20412;-51
2023/08/22 06:56:19;;;;;;;6.50;3.27;;;21.90;1.00;;;;;;5115283;28;20214;-50
2023/08/22 06:58:45;;;;;;;10.33;3.83;;;22.10;1.00;;;;;;5115821;28;20264;-51
2023/08/22 07:01:10;;;;;;;4.90;3.10;;;22.30;1.00;;;;;;5115513;28;20621;-51
2023/08/22 07:03:36;;;;;;;5.57;3.00;;;22.30;1.00;;;;;;5115033;28;20633;-51
2023/08/22 07:06:02;;;;;;;5.80;2.93;;;22.30;1.00;;;;;;5115518;28;20177;-51
2023/08/22 07:08:27;;;;;;;7.30;3.50;;;22.40;1.00;;;;;;5115412;28;20229;-51
2023/08/22 07:11:03;;;;;;;9.70;3.67;;;22.60;1.00;;;;;;5115359;28;20264;-50
2023/08/22 07:13:29;;;;;;;11.93;3.43;;;22.80;1.00;;;;;;5115383;28;20161;-51
2023/08/22 07:15:55;;;;;;;8.27;3.23;;;23.00;1.00;;;;;;5115222;28;20462;-51
2023/08/22 07:18:21;;;;;;;4.27;3.30;;;23.10;1.00;;;;;;5114786;28;20765;-51
2023/08/22 07:20:46;;;;;;;12.97;3.70;;;23.30;1.00;;;;;;5115240;28;20226;-50
2023/08/22 07:23:12;;;;;;;7.83;3.60;;;23.70;1.00;;;;;;5114448;28;20229;-50
2023/08/22 07:25:40;;;;;;;8.80;3.90;;;23.80;1.00;;;;;;5114961;28;20238;-52
2023/08/22 07:28:05;;;;;;;8.20;3.43;;;23.90;1.00;;;;;;5114821;28;20774;-52
2023/08/22 07:30:32;;;;;;;7.50;3.60;;;24.10;1.00;;;;;;5114852;28;20415;-51
2023/08/22 07:32:58;;;;;;;7.73;4.20;;;24.30;1.00;;;;;;5114745;28;20180;-51
2023/08/22 07:35:24;;;;;;;11.87;3.53;;;24.60;1.00;;;;;;5114936;28;20454;-52
2023/08/22 07:37:50;;;;;;;12.33;3.47;;;24.90;1.00;;;;;;5114533;28;20205;-49
2023/08/22 07:40:16;;;;;;;7.90;3.30;;;25.10;1.00;;;;;;5114447;28;20450;-48
2023/08/22 07:42:42;;;;;;;7.27;2.80;;;25.40;1.00;;;;;;5115048;28;20185;-48
2023/08/22 07:45:08;;;;;;;6.13;2.87;;;25.80;1.00;;;;;;5114877;28;20415;-49
2023/08/22 07:47:34;;;;;;;8.43;3.17;;;26.10;1.00;;;;;;5114568;28;20264;-49
2023/08/22 07:49:59;;;;;;;11.43;3.67;;;26.20;1.00;;;;;;5114554;28;20510;-49
2023/08/22 07:52:25;;;;;;;6.80;2.97;;;26.20;1.00;;;;;;5114402;28;20176;-50
2023/08/22 07:54:50;;;;;;;8.17;3.10;;;26.10;1.00;;;;;;5114423;28;20208;-49
2023/08/22 07:57:16;;;;;;;9.10;2.90;;;25.80;1.00;;;;;;5114141;28;20689;-50
2023/08/22 07:59:41;;;;;;;11.43;2.57;;;25.60;1.00;;;;;;5114256;28;20253;-51
2023/08/22 08:02:07;;;;;;;7.03;2.87;;;25.30;1.00;;;;;;5114382;28;20264;-52
2023/08/22 08:04:33;;;;;;;8.83;2.43;;;24.90;1.00;;;;;;5114148;28;20180;-50
2023/08/22 08:06:58;;;;;;;9.90;3.00;;;24.40;1.00;;;;;;5114178;28;20176;-51
2023/08/22 08:09:24;;;;;;;10.90;3.10;;;24.20;1.00;;;;;;5113915;28;20680;-51
2023/08/22 08:11:49;;;;;;;5.70;2.20;;;24.40;1.00;;;;;;5114217;28;20188;-49
2023/08/22 08:14:15;;;;;;;5.53;2.30;;;24.80;1.00;;;;;;5114288;28;20200;-50
2023/08/22 08:16:40;;;;;;;5.53;2.63;;;25.40;1.00;;;;;;5114394;28;20535;-50
2023/08/22 08:19:06;;;;;;;3.90;2.23;;;25.70;1.00;;;;;;5114631;28;20217;-49
2023/08/22 08:21:32;;;;;;;7.03;2.47;;;25.80;1.00;;;;;;5113873;28;20266;-50
2023/08/22 08:23:57;;;;;;;5.53;2.40;;;25.90;1.00;;;;;;5114279;28;20169;-49
2023/08/22 08:26:23;;;;;;;6.83;2.50;;;26.10;1.00;;;;;;5114352;28;20184;-50
2023/08/22 08:28:49;;;;;;;5.70;2.07;;;26.10;1.00;;;;;;5114473;28;20188;-49
2023/08/22 08:31:15;;;;;;;6.57;2.00;;;26.20;1.00;;;;;;5114329;28;20411;-50
2023/08/22 08:33:40;;;;;;;3.53;2.27;;;26.40;1.00;;;;;;5113988;28;20483;-49
2023/08/22 08:36:06;;;;;;;10.40;2.10;;;26.20;1.00;;;;;;5113131;28;20223;-49
2023/08/22 08:38:31;;;;;;;5.43;2.60;;;26.10;1.00;;;;;;5114493;28;20571;-50
2023/08/22 08:40:59;;;;;;;7.43;2.50;;;25.80;1.00;;;;;;5114452;28;20446;-50
2023/08/22 08:43:25;;;;;;;5.87;2.37;;;26.10;1.00;;;;;;5114243;28;20181;-50
2023/08/22 08:45:51;;;;;;;10.00;2.10;;;26.30;1.00;;;;;;5113983;28;20426;-50
2023/08/22 08:48:18;;;;;;;4.40;2.03;;;26.20;1.00;;;;;;5113954;28;20402;-50
2023/08/22 08:50:44;;;;;;;6.30;2.10;;;25.90;1.00;;;;;;5113967;28;20188;-50
2023/08/22 08:53:10;;;;;;;4.70;2.23;;;25.70;1.00;;;;;;5113637;28;20901;-49
2023/08/22 08:55:35;;;;;;;9.60;2.40;;;25.50;1.00;;;;;;5113533;28;20458;-50
2023/08/22 08:58:01;;;;;;;6.17;2.23;;;25.40;1.00;;;;;;5114255;28;20185;-50
2023/08/22 09:00:29;;;;;;;5.63;2.30;;;25.10;1.00;;;;;;5114130;28;20181;-51
2023/08/22 09:02:54;;;;;;;5.63;2.20;;;25.00;1.00;;;;;;5114022;28;20249;-50
2023/08/22 09:05:21;;;;;;;6.27;2.40;;;25.10;1.00;;;;;;5113630;28;20501;-50
2023/08/22 09:07:47;;;;;;;2.70;2.00;;;24.90;1.00;;;;;;5113810;28;20184;-50
2023/08/22 09:10:12;;;;;;;5.00;2.30;;;25.10;1.00;;;;;;5113597;28;20411;-49
2023/08/22 09:12:38;;;;;;;5.00;2.40;;;25.60;1.00;;;;;;5113921;28;20181;-50
2023/08/22 09:15:09;;;;;;;6.73;2.27;;;26.00;1.00;;;;;;5113718;28;20256;-49
2023/08/22 09:17:35;;;;;;;5.33;2.40;;;26.30;1.00;;;;;;5113742;28;20633;-50
2023/08/22 09:20:10;;;;;;;4.53;2.27;;;26.70;1.00;;;;;;5113518;28;20414;-50
2023/08/22 09:22:36;;;;;;;7.60;2.20;;;27.20;1.00;;;;;;5113199;28;20589;-51
2023/08/22 09:25:04;;;;;;;3.90;2.50;;;27.10;1.00;;;;;;5114468;28;20497;-50
2023/08/22 09:27:30;;;;;;;2.00;1.80;;;26.80;1.00;;;;;;5117112;28;20262;-50
2023/08/22 09:30:06;;;;;;;7.13;2.53;;;26.30;1.00;;;;;;5117252;28;20419;-49
2023/08/22 09:32:32;;;;;;;6.03;2.37;;;26.10;1.00;;;;;;5117071;28;20970;-51
2023/08/22 09:35:00;;;;;;;5.37;2.23;;;25.80;1.00;;;;;;5117477;28;20470;-50
2023/08/22 09:37:37;;;;;;;5.00;2.43;;;25.80;1.00;;;;;;5117385;28;20421;-51
2023/08/22 09:40:14;;;;;;;3.77;2.10;;;25.80;1.00;;;;;;5117658;28;20399;-50
2023/08/22 09:42:40;;;;;;;4.27;2.80;;;25.60;1.00;;;;;;5117211;28;20398;-50
2023/08/22 09:45:07;;;;;;;7.33;2.67;;;25.60;1.00;;;;;;5117440;28;20428;-49
2023/08/22 09:47:39;;;;;;;10.73;2.27;;;25.60;1.00;;;;;;5117156;28;20422;-49
2023/08/22 09:50:06;;;;;;;4.40;1.87;;;25.70;1.00;;;;;;5098577;28;20450;-50
2023/08/22 09:52:36;;;;;;;6.20;2.73;;;25.60;1.00;;;;;;5117063;28;20417;-52
2023/08/22 09:55:02;;;;;;;3.60;2.47;;;25.50;1.00;;;;;;5116998;28;20463;-50
2023/08/22 09:57:29;;;;;;;4.07;2.30;;;25.40;1.00;;;;;;5116723;28;20768;-51
2023/08/22 09:59:55;;;;;;;6.23;2.70;;;25.60;1.00;;;;;;5116829;28;20779;-50
2023/08/22 10:02:21;;;;;;;2.77;2.20;;;25.60;1.00;;;;;;5116381;28;20759;-51
2023/08/22 10:04:47;;;;;;;8.50;2.47;;;26.00;1.00;;;;;;5115509;28;20418;-49
2023/08/22 10:07:13;;;;;;;5.73;2.80;;;26.30;1.00;;;;;;5116439;28;20411;-51
2023/08/22 10:09:42;;;;;;;4.27;2.53;;;26.40;1.00;;;;;;5116734;28;20439;-50
2023/08/22 10:12:17;;;;;;;8.33;2.60;;;26.60;1.00;;;;;;5116403;28;20271;-51
2023/08/22 10:14:46;;;;;;;4.90;2.47;;;26.70;1.00;;;;;;5098599;28;20533;-50
2023/08/22 10:17:16;;;;;;;4.43;1.97;;;26.60;1.00;;;;;;5116228;28;20410;-50
2023/08/22 10:19:44;;;;;;;3.97;2.33;;;26.60;1.00;;;;;;5116398;28;20418;-49
2023/08/22 10:22:14;;;;;;;5.33;2.90;;;26.60;1.00;;;;;;5115956;28;20470;-51
2023/08/22 10:24:41;;;;;;;5.40;2.30;;;26.60;1.00;;;;;;5116028;28;20772;-51
2023/08/22 10:27:09;;;;;;;3.00;2.10;;;26.80;1.00;;;;;;5115738;28;20426;-50
2023/08/22 10:29:36;;;;;;;7.70;2.97;;;27.40;1.00;;;;;;5115760;28;20423;-50
2023/08/22 10:32:01;;;;;;;5.30;2.90;;;28.20;1.00;;;;;;5116153;28;20425;-48
2023/08/22 10:34:39;;;;;;;3.03;2.03;;;28.70;1.00;;;;;;5115938;28;20402;-49
2023/08/22 10:37:19;;;;;;;8.00;2.83;;;29.10;1.00;;;;;;5114854;28;20237;-51
2023/08/22 10:39:47;;;;;;;3.20;2.23;;;29.60;1.00;;;;;;5116186;28;20414;-50
2023/08/22 10:42:20;;;;;;;6.93;2.50;;;30.00;1.00;;;;;;5115492;28;20465;-50
2023/08/22 10:44:49;;;;;;;5.93;2.83;;;30.30;1.00;;;;;;5115803;28;20895;-51
2023/08/22 10:47:20;;;;;;;12.20;2.50;;;30.40;1.00;;;;;;5115455;28;20426;-51
2023/08/22 10:49:50;;;;;;;6.13;2.33;;;30.30;1.00;;;;;;5115152;28;20426;-50
2023/08/22 10:52:17;;;;;;;6.47;2.07;;;30.00;1.00;;;;;;5115186;28;20403;-50
2023/08/22 10:55:00;;;;;;;5.40;2.97;;;29.60;1.00;;;;;;5115421;28;20461;-51
2023/08/22 10:57:31;;;;;;;5.33;2.43;;;29.10;1.00;;;;;;5115485;28;20423;-52
2023/08/22 10:59:59;;;;;;;5.50;2.50;;;29.00;1.00;;;;;;5115655;28;20415;-50
2023/08/22 11:02:33;;;;;;;6.77;2.80;;;28.80;1.00;;;;;;5115682;28;20430;-50
2023/08/22 11:05:00;;;;;;;7.40;2.57;;;29.00;1.00;;;;;;5115452;28;20426;-51
2023/08/22 11:07:27;;;;;;;6.70;2.57;;;29.40;1.00;;;;;;5115406;28;20505;-51
2023/08/22 11:09:57;;;;;;;5.63;2.67;;;29.70;1.00;;;;;;5115424;28;20946;-52
2023/08/22 11:12:24;;;;;;;4.60;2.47;;;29.90;1.00;;;;;;5096982;28;20468;-50
2023/08/22 11:14:51;;;;;;;5.43;2.63;;;30.50;1.00;;;;;;5115112;28;20531;-51
2023/08/22 11:17:19;;;;;;;7.27;2.70;;;30.80;1.00;;;;;;5114736;28;20407;-50
2023/08/22 11:19:46;;;;;;;6.03;2.37;;;31.10;1.00;;;;;;5115079;28;20475;-50
2023/08/22 11:22:12;;;;;;;6.43;2.30;;;31.50;1.00;;;;;;5113176;28;21024;-51
2023/08/22 11:24:42;;;;;;;12.63;2.80;;;31.70;1.00;;;;;;5114694;28;20894;-51
2023/08/22 11:27:08;;;;;;;4.90;2.50;;;31.00;1.00;;;;;;5115075;28;20417;-51
2023/08/22 11:29:41;;;;;;;8.93;2.63;;;29.60;1.00;;;;;;5114546;28;20406;-51
2023/08/22 11:32:25;;;;;;;2.47;2.27;;;29.10;1.00;;;;;;5114985;28;20180;-51
2023/08/22 11:34:56;;;;;;;8.23;2.03;;;29.40;1.00;;;;;;5114972;28;20563;-51
2023/08/22 11:37:22;;;;;;;3.30;2.47;;;29.80;1.00;;;;;;5114838;28;20403;-52
2023/08/22 11:39:48;;;;;;;4.70;2.40;;;30.20;1.00;;;;;;5114813;28;20411;-51
2023/08/22 11:42:18;;;;;;;5.67;2.70;;;31.00;1.00;;;;;;5114776;28;20501;-49
2023/08/22 11:45:10;;;;;;;8.17;2.37;;;31.20;1.00;;;;;;5113954;28;20437;-51
2023/08/22 11:47:37;;;;;;;4.97;2.30;;;30.60;1.00;;;;;;5114462;28;20433;-50
2023/08/22 11:50:10;;;;;;;8.03;2.13;;;30.20;1.00;;;;;;5114339;28;20477;-50
2023/08/22 11:52:39;;;;;;;5.93;2.60;;;30.70;1.00;;;;;;5114364;28;20411;-51
2023/08/22 11:55:06;;;;;;;9.67;3.70;;;31.20;1.00;;;;;;5114122;28;20473;-51
2023/08/22 11:57:34;;;;;;;9.70;3.43;;;31.80;1.00;;;;;;5114592;28;20418;-51
2023/08/22 12:00:01;;;;;;;5.07;2.60;;;31.70;99.90;;;;;;5114213;28;20951;-50
2023/08/22 12:02:27;;;;;;;5.77;2.97;;;30.60;1.00;;;;;;5114183;28;20463;-51
2023/08/22 12:04:55;;;;;;;10.00;4.13;;;29.70;99.90;;;;;;5114485;28;20418;-50
2023/08/22 12:07:21;;;;;;;14.83;3.10;;;29.50;1.00;;;;;;5114465;28;20234;-50
2023/08/22 12:10:16;;;;;;;6.33;2.57;;;30.00;1.00;;;;;;5114028;28;20457;-50
2023/08/22 12:12:42;;;;;;;4.17;2.27;;;30.80;1.00;;;;;;5096348;28;20923;-51
2023/08/22 12:15:08;;;;;;;8.00;3.13;;;31.10;1.00;;;;;;5114225;28;20469;-50
2023/08/22 12:17:33;;;;;;;5.93;2.17;;;31.60;99.90;;;;;;5114394;28;20617;-51
2023/08/22 12:19:59;;;;;;;4.50;2.47;;;32.00;99.90;;;;;;5114399;28;20173;-51
2023/08/22 12:22:25;;;;;;;6.33;2.27;;;32.30;99.90;;;;;;5113817;28;20235;-50
2023/08/22 12:24:50;;;;;;;4.90;2.23;;;32.50;99.90;;;;;;5114464;28;20411;-51
2023/08/22 12:27:16;;;;;;;4.17;2.30;;;32.80;99.90;;;;;;5114117;28;20191;-51
2023/08/22 12:29:42;;;;;;;6.60;2.50;;;32.90;99.90;;;;;;5113693;28;20259;-51
2023/08/22 12:32:07;;;;;;;4.17;2.50;;;32.80;99.90;;;;;;5114325;28;20177;-51
2023/08/22 12:34:33;;;;;;;5.70;2.23;;;32.60;1.00;;;;;;5113653;28;20625;-51
2023/08/22 12:36:58;;;;;;;4.20;1.93;;;32.70;1.00;;;;;;5114434;28;20212;-51
2023/08/22 12:39:24;;;;;;;5.73;2.30;;;32.90;99.90;;;;;;5114075;28;20534;-50
2023/08/22 12:41:50;;;;;;;6.83;2.50;;;32.90;99.90;;;;;;5114119;28;20255;-52
2023/08/22 12:44:15;;;;;;;4.60;2.43;;;33.00;99.90;;;;;;5113634;28;20234;-51
2023/08/22 12:46:41;;;;;;;9.80;2.70;;;32.70;99.90;;;;;;5113904;28;20180;-51
2023/08/22 12:49:07;;;;;;;4.77;1.93;;;32.70;99.90;;;;;;5113669;28;20598;-51
2023/08/22 12:51:33;;;;;;;4.03;1.97;;;32.70;99.90;;;;;;5113786;28;20260;-52